Time;durP1;ratioP1;P1;durP2;ratioP2;P2;SDS_P1;SDS_P2;PMS_P1;PMS_P2;Temp;Humidity;BMP_temperature;BMP_pressure;BME280_temperature;BME280_humidity;BME280_pressure;Samples;Min_cycle;Max_cycle;Signal;HPM_P1;HPM_P2
2022/11/08 00:01:30;;;;;;;8.80;1.20;;;;;;;11.75;100.00;100769.91;2088079;28;20037;-78
2022/11/08 00:02:09;;;;;;;8.02;1.23;;;;;;;11.79;100.00;100781.41;2087107;28;35907;-79
2022/11/08 00:03:14;;;;;;;8.43;1.17;;;;;;;11.80;100.00;100778.69;2087657;28;20045;-78
2022/11/08 00:04:17;;;;;;;13.07;0.93;;;;;;;11.78;100.00;100775.19;2087568;28;36150;-78
2022/11/08 00:14:47;;;;;;;6.30;1.15;;;;;;;11.95;100.00;100773.81;2087004;28;33843;-79
2022/11/08 00:15:49;;;;;;;10.07;1.40;;;;;;;11.96;100.00;100771.09;2087040;28;31934;-79
2022/11/08 00:16:51;;;;;;;10.32;1.33;;;;;;;12.02;100.00;100772.69;2087294;28;38472;-80
2022/11/08 00:17:52;;;;;;;6.35;1.02;;;;;;;12.04;100.00;100773.53;2087251;28;20826;-79
2022/11/08 00:18:54;;;;;;;9.60;1.15;;;;;;;12.02;100.00;100772.69;2087075;28;31196;-79
2022/11/08 00:19:56;;;;;;;11.75;1.80;;;;;;;12.00;100.00;100769.19;2095795;28;20052;-80
2022/11/08 00:21:02;;;;;;;9.10;1.20;;;;;;;12.02;100.00;100770.91;2079094;28;20795;-79
2022/11/08 00:22:04;;;;;;;8.02;1.42;;;;;;;12.02;100.00;100768.22;2064054;28;31930;-80
2022/11/08 00:23:06;;;;;;;12.27;1.42;;;;;;;12.02;100.00;100770.00;2070811;28;34970;-79
2022/11/08 00:24:08;;;;;;;10.48;1.38;;;;;;;12.05;100.00;100766.38;2078697;28;31377;-79
2022/11/08 00:25:10;;;;;;;6.45;1.30;;;;;;;12.07;100.00;100769.88;2086568;28;32632;-79
2022/11/08 00:26:12;;;;;;;6.80;0.98;;;;;;;12.11;100.00;100776.91;2088160;28;20119;-79
2022/11/08 00:27:20;;;;;;;6.13;1.52;;;;;;;12.10;100.00;100773.34;2087297;28;20034;-79
2022/11/08 00:28:22;;;;;;;9.60;1.23;;;;;;;12.14;100.00;100766.94;2085993;28;36426;-79
2022/11/08 00:29:23;;;;;;;5.55;1.17;;;;;;;12.16;100.00;100769.59;2087571;28;20344;-79
2022/11/08 00:30:25;;;;;;;7.18;1.15;;;;;;;12.17;100.00;100766.84;2087423;28;37302;-79
2022/11/08 00:31:29;;;;;;;9.70;1.30;;;;;;;12.16;100.00;100770.44;2086924;28;28035;-79
2022/11/08 00:32:31;;;;;;;8.93;1.17;;;;;;;12.17;100.00;100771.34;2087329;28;31489;-79
2022/11/08 00:33:33;;;;;;;8.25;1.30;;;;;;;12.20;100.00;100763.19;2087636;28;25848;-79
2022/11/08 00:34:35;;;;;;;12.15;1.45;;;;;;;12.22;100.00;100764.91;2087417;28;27841;-79
2022/11/08 00:35:36;;;;;;;10.82;1.35;;;;;;;12.25;100.00;100761.22;2087251;28;33943;-79
2022/11/08 00:36:38;;;;;;;10.85;1.20;;;;;;;12.22;100.00;100769.38;2087194;28;20037;-80
2022/11/08 00:37:40;;;;;;;9.25;0.90;;;;;;;12.20;100.00;100761.38;2087481;28;20038;-79
2022/11/08 00:38:42;;;;;;;11.30;1.33;;;;;;;12.20;100.00;100765.84;2087449;28;32444;-79
2022/11/08 00:39:45;;;;;;;9.70;1.50;;;;;;;12.21;100.00;100759.56;2087467;28;24602;-79
2022/11/08 00:40:47;;;;;;;8.02;0.90;;;;;;;12.23;100.00;100766.63;2087828;28;20038;-79
2022/11/08 00:41:49;;;;;;;12.07;1.55;;;;;;;12.28;100.00;100762.94;2086846;28;39981;-80
2022/11/08 00:42:51;;;;;;;9.63;1.35;;;;;;;12.28;100.00;100765.63;2087597;28;30402;-80
2022/11/08 00:43:52;;;;;;;11.95;1.05;;;;;;;12.30;100.00;100766.47;2086780;28;22630;-79
2022/11/08 00:44:54;;;;;;;11.68;1.50;;;;;;;12.28;100.00;100765.63;2085616;28;31615;-79
2022/11/08 00:45:58;;;;;;;8.23;1.05;;;;;;;12.28;100.00;100765.63;2087045;28;20913;-80
2022/11/08 00:47:00;;;;;;;9.63;1.27;;;;;;;12.27;100.00;100761.19;2086393;28;34993;-80
2022/11/08 00:48:02;;;;;;;11.05;1.80;;;;;;;12.22;100.00;100759.53;2079351;28;27887;-79
2022/11/08 00:49:04;;;;;;;11.82;1.38;;;;;;;12.19;100.00;100754.25;2079270;28;30664;-80
2022/11/08 00:50:06;;;;;;;6.80;1.08;;;;;;;12.23;100.00;100755.91;2078956;28;32397;-79
2022/11/08 00:51:11;;;;;;;9.70;0.95;;;;;;;12.20;100.00;100757.81;2078959;28;30059;-80
2022/11/08 00:52:13;;;;;;;7.15;0.93;;;;;;;12.21;100.00;100752.41;2078691;28;32078;-80
2022/11/08 00:53:14;;;;;;;8.73;1.30;;;;;;;12.21;100.00;100752.41;2078848;28;31100;-79
2022/11/08 00:54:19;;;;;;;8.15;1.10;;;;;;;12.19;100.00;100748.88;2079506;28;20930;-80
2022/11/08 00:55:21;;;;;;;9.02;1.10;;;;;;;12.19;100.00;100748.88;2078544;28;30840;-80
2022/11/08 00:56:23;;;;;;;11.57;1.67;;;;;;;12.21;100.00;100752.41;2078353;28;31319;-80
2022/11/08 00:57:25;;;;;;;8.85;1.27;;;;;;;12.23;100.00;100755.03;2078727;28;26713;-80
2022/11/08 00:58:46;;;;;;;10.50;1.40;;;;;;;12.20;100.00;100750.66;2079705;28;20038;-79
2022/11/08 00:59:48;;;;;;;9.68;1.17;;;;;;;12.19;100.00;100754.25;2079685;28;20026;-79
2022/11/08 01:00:50;;;;;;;8.93;1.13;;;;;;;12.19;100.00;100751.56;2078953;28;30122;-80
2022/11/08 01:01:51;;;;;;;10.43;1.40;;;;;;;12.19;100.00;100754.25;2087102;28;20131;-80
2022/11/08 01:03:17;;;;;;;10.20;1.15;;;;;;;12.19;100.00;100751.56;2086544;28;34591;-80
2022/11/08 01:04:18;;;;;;;6.80;0.75;;;;;;;12.18;100.00;100751.63;2087105;28;35740;-80
2022/11/08 01:05:19;;;;;;;8.02;1.25;;;;;;;12.18;100.00;100751.63;2095240;28;20038;-80
2022/11/08 01:06:24;;;;;;;10.10;1.23;;;;;;;12.19;100.00;100756.94;2095219;28;31130;-79
2022/11/08 01:07:25;;;;;;;5.95;0.70;;;;;;;12.15;100.00;100749.91;2086813;28;31494;-80
2022/11/08 01:08:27;;;;;;;9.18;1.65;;;;;;;12.17;100.00;100748.06;2094846;28;33839;-80
2022/11/08 01:09:29;;;;;;;11.13;1.45;;;;;;;12.18;100.00;100747.13;2094388;28;31212;-80
2022/11/08 01:10:34;;;;;;;8.32;1.08;;;;;;;12.20;100.00;100744.38;2087526;28;30151;-79
2022/11/08 01:11:38;;;;;;;7.30;1.35;;;;;;;12.21;100.00;100746.16;2086568;28;28870;-81
2022/11/08 01:12:40;;;;;;;12.40;1.63;;;;;;;12.20;100.00;100745.28;2086412;28;34503;-80
2022/11/08 01:13:42;;;;;;;8.40;1.35;;;;;;;12.20;100.00;100744.38;2087199;28;20045;-80
2022/11/08 01:14:47;;;;;;;8.20;1.25;;;;;;;12.15;100.00;100744.56;2087039;28;37599;-79
2022/11/08 01:15:48;;;;;;;11.38;1.45;;;;;;;12.16;100.00;100746.28;2086918;28;34629;-79
2022/11/08 01:16:51;;;;;;;8.52;1.13;;;;;;;12.16;100.00;100753.47;2087939;28;20041;-79
2022/11/08 01:17:52;;;;;;;11.80;1.73;;;;;;;12.16;100.00;100748.09;2086676;28;33751;-80
2022/11/08 01:18:56;;;;;;;7.50;1.00;;;;;;;12.16;100.00;100748.09;2086979;28;35540;-79
2022/11/08 01:19:57;;;;;;;12.40;1.35;;;;;;;12.17;100.00;100756.13;2094845;28;27666;-79
2022/11/08 01:21:01;;;;;;;7.63;1.00;;;;;;;12.16;100.00;100756.16;2094316;28;38798;-79
2022/11/08 01:22:06;;;;;;;6.80;1.13;;;;;;;12.15;100.00;100755.28;2087390;28;20168;-80
2022/11/08 01:23:08;;;;;;;11.23;1.30;;;;;;;12.13;100.00;100762.53;2095480;28;32015;-79
2022/11/08 01:24:10;;;;;;;8.77;0.90;;;;;;;12.14;100.00;100750.84;2086102;28;31405;-79
2022/11/08 01:25:12;;;;;;;9.60;1.20;;;;;;;12.15;100.00;100755.28;2087881;28;34352;-80
2022/11/08 01:26:17;;;;;;;9.30;1.30;;;;;;;12.15;100.00;100754.38;2088434;28;37692;-79
2022/11/08 01:27:19;;;;;;;6.60;0.93;;;;;;;12.16;100.00;100750.78;2088886;28;31062;-80
2022/11/08 01:28:21;;;;;;;11.80;1.58;;;;;;;12.15;100.00;100754.38;2088711;28;20211;-80
2022/11/08 01:29:22;;;;;;;6.93;1.00;;;;;;;12.11;100.00;100753.63;2087820;28;30327;-80
2022/11/08 01:30:24;;;;;;;11.68;1.70;;;;;;;12.08;100.00;100748.38;2087358;28;36771;-80
2022/11/08 01:31:31;;;;;;;5.88;1.10;;;;;;;12.07;100.00;100751.97;2088594;28;31482;-80
2022/11/08 01:32:32;;;;;;;9.18;1.25;;;;;;;12.07;100.00;100748.41;2088698;28;29658;-79
2022/11/08 01:33:35;;;;;;;7.22;0.93;;;;;;;12.07;100.00;100754.66;2088233;28;31648;-80
2022/11/08 01:34:36;;;;;;;8.05;1.02;;;;;;;12.05;100.00;100751.13;2088763;28;28379;-79
2022/11/08 01:35:39;;;;;;;9.18;1.40;;;;;;;12.05;100.00;100753.81;2088516;28;31206;-80
2022/11/08 01:36:41;;;;;;;6.55;0.90;;;;;;;12.02;100.00;100751.22;2088675;28;30388;-79
2022/11/08 01:37:45;;;;;;;9.52;1.38;;;;;;;12.01;100.00;100754.84;2088247;28;39856;-80
2022/11/08 01:38:47;;;;;;;7.20;1.30;;;;;;;12.01;100.00;100760.22;2096530;28;20199;-79
2022/11/08 01:39:48;;;;;;;7.53;1.25;;;;;;;11.98;100.00;100747.75;2087637;28;28459;-80
2022/11/08 01:40:50;;;;;;;9.75;1.30;;;;;;;11.97;100.00;100754.06;2087714;28;34622;-78
2022/11/08 01:41:52;;;;;;;9.30;1.25;;;;;;;12.00;100.00;100750.41;2087631;28;34752;-80
2022/11/08 01:42:55;;;;;;;9.18;1.30;;;;;;;11.99;100.00;100754.91;2087564;28;28481;-80
2022/11/08 01:43:58;;;;;;;9.70;1.55;;;;;;;11.94;100.00;100747.94;2080244;28;24685;-80
2022/11/08 01:45:07;;;;;;;7.00;1.15;;;;;;;11.93;100.00;100746.16;2088141;28;30055;-79
2022/11/08 01:46:11;;;;;;;8.32;1.15;;;;;;;11.92;100.00;100752.47;2088120;28;38297;-79
2022/11/08 01:47:13;;;;;;;8.43;1.25;;;;;;;11.90;100.00;100752.50;2088435;28;31970;-79
2022/11/08 01:48:15;;;;;;;6.80;1.13;;;;;;;11.88;100.00;100751.66;2088237;28;30621;-79
2022/11/08 01:49:33;;;;;;;7.15;1.38;;;;;;;11.85;100.00;100749.94;2088333;28;32258;-79
2022/11/08 01:50:34;;;;;;;8.45;1.38;;;;;;;11.84;100.00;100742.81;2096687;28;20044;-80
2022/11/08 01:51:53;;;;;;;9.13;1.10;;;;;;;11.85;100.00;100744.56;2079330;28;34517;-79
2022/11/08 01:52:57;;;;;;;10.00;1.38;;;;;;;11.84;100.00;100753.56;2075995;28;36547;-79
2022/11/08 01:54:02;;;;;;;8.15;1.38;;;;;;;11.80;100.00;100746.50;2087921;28;29771;-80
2022/11/08 01:55:22;;;;;;;10.60;1.20;;;;;;;11.79;100.00;100752.81;2087748;28;33506;-80
2022/11/08 01:56:24;;;;;;;8.15;1.30;;;;;;;11.77;100.00;100745.72;2087245;28;28841;-79
2022/11/08 01:58:00;;;;;;;8.02;1.33;;;;;;;11.72;100.00;100743.19;2087445;28;39524;-80
2022/11/08 01:59:06;;;;;;;11.25;1.48;;;;;;;11.72;100.00;100743.19;2080291;28;20065;-79
2022/11/08 02:00:11;;;;;;;9.20;1.67;;;;;;;11.69;100.00;100737.06;2075104;28;34874;-80
2022/11/08 02:01:14;;;;;;;9.13;1.35;;;;;;;11.64;100.00;100743.41;2071128;28;39819;-80
2022/11/08 02:02:16;;;;;;;10.02;1.85;;;;;;;11.64;100.00;100747.91;2071806;28;29864;-80
2022/11/08 02:03:19;;;;;;;7.78;1.38;;;;;;;11.66;100.00;100732.66;2079814;28;29698;-80
2022/11/08 02:04:21;;;;;;;14.68;1.77;;;;;;;11.67;100.00;100741.59;2087815;28;37737;-80
2022/11/08 02:05:23;;;;;;;8.48;1.23;;;;;;;11.66;100.00;100735.31;2087199;28;30808;-80
2022/11/08 02:06:28;;;;;;;9.70;1.30;;;;;;;11.62;100.00;100736.34;2079105;28;36091;-80
2022/11/08 02:07:32;;;;;;;9.45;1.83;;;;;;;11.60;100.00;100730.16;2078899;28;37226;-80
2022/11/08 02:08:42;;;;;;;9.00;1.08;;;;;;;11.57;100.00;100732.94;2079526;28;37391;-79
2022/11/08 02:09:47;;;;;;;8.30;0.98;;;;;;;11.56;100.00;100734.75;2082926;28;20072;-80
2022/11/08 02:10:52;;;;;;;9.88;1.65;;;;;;;11.56;100.00;100728.50;2080425;28;22023;-80
2022/11/08 02:11:54;;;;;;;9.60;1.17;;;;;;;11.55;100.00;100724.94;2078595;28;30419;-79
2022/11/08 02:12:56;;;;;;;12.65;1.95;;;;;;;11.50;100.00;100728.69;2080777;28;20148;-80
2022/11/08 02:14:01;;;;;;;7.35;1.30;;;;;;;11.48;100.00;100730.53;2078804;28;34186;-80
2022/11/08 02:15:03;;;;;;;11.07;1.35;;;;;;;11.42;100.00;100731.59;2079982;28;20047;-80
2022/11/08 02:16:36;;;;;;;9.57;1.50;;;;;;;11.40;100.00;100728.97;2080373;28;20034;-80
2022/11/08 02:17:46;;;;;;;;;;;;;;;11.37;100.00;100739.75;2080753;28;23550;-80
2022/11/08 02:18:48;;;;;;;9.20;1.45;;;;;;;11.35;100.00;100744.28;2080864;28;19922;-80
2022/11/08 02:19:50;;;;;;;8.75;1.23;;;;;;;11.31;100.00;100737.28;2070524;28;38170;-80
2022/11/08 02:21:19;;;;;;;11.48;1.63;;;;;;;11.25;100.00;100742.81;2071125;28;38633;-80
2022/11/08 02:22:37;;;;;;;9.55;1.35;;;;;;;11.23;100.00;100733.94;2080286;28;30590;-80
2022/11/08 02:23:47;;;;;;;5.30;1.40;;;;;;;11.19;100.00;100734.94;2079262;28;33962;-79
2022/11/08 02:24:49;;;;;;;;;;;;;;;11.12;100.00;100736.06;2080362;28;23207;-79
2022/11/08 02:25:52;;;;;;;10.77;1.48;;;;;;;11.09;100.00;100745.06;2080018;28;34882;-79
2022/11/08 02:26:55;;;;;;;8.20;1.63;;;;;;;11.12;100.00;100738.72;2079451;28;28366;-79
2022/11/08 02:27:56;;;;;;;10.00;1.42;;;;;;;11.04;100.00;100734.47;2081986;28;32881;-79
2022/11/08 02:29:26;;;;;;;8.65;1.30;;;;;;;11.04;100.00;100737.16;2088396;28;21271;-81
2022/11/08 02:30:36;;;;;;;5.72;1.25;;;;;;;11.00;100.00;100742.63;2095827;28;31828;-81
2022/11/08 02:31:37;;;;;;;8.02;1.88;;;;;;;10.99;100.00;100731.03;2087620;28;37118;-80
2022/11/08 02:32:41;;;;;;;10.60;1.73;;;;;;;10.96;100.00;100736.47;2087509;28;28794;-80
2022/11/08 02:33:44;;;;;;;9.32;1.70;;;;;;;10.92;100.00;100729.44;2087810;28;35646;-79
2022/11/08 02:34:53;;;;;;;9.00;1.65;;;;;;;10.89;100.00;100732.19;2086723;28;37548;-80
2022/11/08 02:35:55;;;;;;;9.30;1.40;;;;;;;10.86;100.00;100741.22;2087027;28;33383;-79
2022/11/08 02:36:59;;;;;;;11.65;2.00;;;;;;;10.83;100.00;100730.56;2095964;28;28508;-80
2022/11/08 02:38:01;;;;;;;9.48;1.65;;;;;;;10.76;100.00;100731.66;2087539;28;24756;-79
2022/11/08 02:39:03;;;;;;;7.43;1.30;;;;;;;10.76;100.00;100736.16;2079766;28;29740;-80
2022/11/08 02:40:06;;;;;;;10.65;1.63;;;;;;;10.74;100.00;100732.63;2087460;28;22892;-78
2022/11/08 02:41:07;;;;;;;8.95;1.80;;;;;;;10.76;100.00;100733.47;2087766;28;40718;-80
2022/11/08 02:42:15;;;;;;;7.80;1.60;;;;;;;10.74;100.00;100740.69;2088519;28;28272;-80
2022/11/08 02:43:17;;;;;;;11.18;1.80;;;;;;;10.76;100.00;100741.50;2095500;28;33902;-80
2022/11/08 02:44:19;;;;;;;9.18;1.70;;;;;;;10.72;100.00;100737.16;2095438;28;20929;-80
2022/11/08 02:45:20;;;;;;;9.90;2.20;;;;;;;10.72;100.00;100737.16;2087193;28;34570;-80
2022/11/08 02:46:22;;;;;;;11.45;2.05;;;;;;;10.65;100.00;100731.94;2087776;28;20096;-80
2022/11/08 02:47:24;;;;;;;11.75;2.10;;;;;;;10.63;100.00;100735.59;2087359;28;31035;-80
2022/11/08 02:48:26;;;;;;;8.10;2.10;;;;;;;10.63;100.00;100733.78;2088100;28;35448;-80
2022/11/08 02:49:27;;;;;;;10.00;1.95;;;;;;;10.60;100.00;100739.22;2095655;28;28487;-80
2022/11/08 02:50:29;;;;;;;11.30;2.15;;;;;;;10.61;100.00;100729.41;2095899;28;33003;-80
2022/11/08 02:51:32;;;;;;;8.35;1.73;;;;;;;10.55;100.00;100735.81;2096182;28;20159;-80
2022/11/08 02:52:33;;;;;;;6.95;1.50;;;;;;;10.54;100.00;100728.69;2087023;28;34378;-80
2022/11/08 02:53:35;;;;;;;9.30;2.03;;;;;;;10.55;100.00;100730.47;2086791;28;32115;-80
2022/11/08 02:54:37;;;;;;;7.25;1.80;;;;;;;10.51;100.00;100728.75;2088711;28;20037;-80
2022/11/08 02:55:39;;;;;;;9.90;1.80;;;;;;;10.50;100.00;100729.69;2095451;28;30644;-80
2022/11/08 02:56:40;;;;;;;10.27;2.10;;;;;;;10.50;100.00;100727.03;2095203;28;32752;-80
2022/11/08 02:57:42;;;;;;;10.80;2.28;;;;;;;10.47;100.00;100733.31;2087703;28;34186;-81
2022/11/08 02:58:45;;;;;;;9.73;1.90;;;;;;;10.43;100.00;100733.44;2087137;28;29270;-80
2022/11/08 02:59:48;;;;;;;9.07;1.80;;;;;;;10.41;100.00;100733.47;2079299;28;24518;-80
2022/11/08 03:00:49;;;;;;;7.82;1.83;;;;;;;10.45;100.00;100723.59;2083552;28;35094;-80
2022/11/08 03:01:51;;;;;;;8.63;1.60;;;;;;;10.39;100.00;100719.28;2087020;28;36408;-80
2022/11/08 03:02:56;;;;;;;7.95;1.88;;;;;;;10.39;100.00;100719.28;2062233;28;38269;-79
2022/11/08 03:03:57;;;;;;;7.47;2.33;;;;;;;10.37;100.00;100717.53;2071694;28;32360;-80
2022/11/08 03:04:59;;;;;;;8.63;2.35;;;;;;;10.35;100.00;100722.91;2087924;28;32687;-80
2022/11/08 03:06:01;;;;;;;7.55;2.20;;;;;;;10.35;100.00;100716.69;2088403;28;20040;-80
2022/11/08 03:07:03;;;;;;;10.70;2.03;;;;;;;10.30;100.00;100720.34;2088108;28;27688;-80
2022/11/08 03:08:05;;;;;;;12.32;2.45;;;;;;;10.31;100.00;100722.13;2086777;28;34788;-80
2022/11/08 03:09:06;;;;;;;13.90;2.45;;;;;;;10.35;100.00;100712.22;2079241;28;34428;-80
2022/11/08 03:10:09;;;;;;;13.63;2.42;;;;;;;10.36;100.00;100719.34;2080641;28;32933;-80
2022/11/08 03:11:11;;;;;;;7.55;1.80;;;;;;;10.32;100.00;100717.66;2079935;28;29910;-80
2022/11/08 03:12:13;;;;;;;8.65;2.10;;;;;;;10.29;100.00;100717.72;2080276;28;30306;-80
2022/11/08 03:13:15;;;;;;;12.07;2.22;;;;;;;10.33;100.00;100719.41;2079294;28;33965;-79
2022/11/08 03:14:17;;;;;;;6.18;1.60;;;;;;;10.30;100.00;100719.44;2090479;28;20033;-80
2022/11/08 03:15:19;;;;;;;11.25;2.00;;;;;;;10.25;100.00;100705.31;2079255;28;20081;-80
2022/11/08 03:16:21;;;;;;;8.80;2.10;;;;;;;10.28;100.00;100707.91;2079298;28;32678;-79
2022/11/08 03:17:22;;;;;;;6.57;1.88;;;;;;;10.22;100.00;100711.63;2087895;28;29984;-80
2022/11/08 03:18:24;;;;;;;10.00;2.35;;;;;;;10.19;100.00;100703.66;2087408;28;36258;-79
2022/11/08 03:19:28;;;;;;;10.05;2.15;;;;;;;10.25;100.00;100716.03;2088579;28;20034;-80
2022/11/08 03:20:30;;;;;;;11.40;2.45;;;;;;;10.21;100.00;100714.31;2087797;28;26311;-79
2022/11/08 03:21:35;;;;;;;8.25;2.15;;;;;;;10.18;100.00;100709.94;2087949;28;29567;-80
2022/11/08 03:22:37;;;;;;;12.65;2.40;;;;;;;10.16;100.00;100706.44;2087685;28;35423;-80
2022/11/08 03:23:40;;;;;;;9.68;2.40;;;;;;;10.16;100.00;100702.84;2088313;28;20790;-80
2022/11/08 03:24:42;;;;;;;11.52;1.88;;;;;;;10.12;100.00;100710.09;2088450;28;20033;-80
2022/11/08 03:25:44;;;;;;;7.78;1.98;;;;;;;10.09;100.00;100707.50;2087608;28;34262;-80
2022/11/08 03:26:45;;;;;;;11.20;2.72;;;;;;;10.12;100.00;100710.09;2086613;28;37370;-80
2022/11/08 03:27:47;;;;;;;10.68;2.42;;;;;;;10.09;100.00;100705.69;2087264;28;33787;-80
2022/11/08 03:28:49;;;;;;;11.43;2.03;;;;;;;10.10;100.00;100704.78;2087616;28;33740;-79
2022/11/08 03:29:50;;;;;;;7.68;1.90;;;;;;;10.12;100.00;100702.97;2087364;28;31524;-80
2022/11/08 03:30:52;;;;;;;9.43;2.47;;;;;;;10.08;100.00;100703.06;2088243;28;20046;-80
2022/11/08 03:31:54;;;;;;;11.38;2.50;;;;;;;10.10;100.00;100695.88;2087713;28;31489;-79
2022/11/08 03:32:56;;;;;;;9.90;2.60;;;;;;;10.05;100.00;100698.69;2088059;28;27774;-79
2022/11/08 03:33:57;;;;;;;7.20;2.15;;;;;;;10.01;100.00;100696.97;2096100;28;20045;-80
2022/11/08 03:34:59;;;;;;;8.70;2.08;;;;;;;9.99;100.00;100700.63;2087299;28;37636;-80
2022/11/08 03:36:01;;;;;;;7.47;2.40;;;;;;;10.00;100.00;100697.03;2078958;28;32054;-79
2022/11/08 03:37:08;;;;;;;10.50;2.25;;;;;;;9.98;100.00;100697.06;2079068;28;22840;-79
2022/11/08 03:38:10;;;;;;;7.28;2.28;;;;;;;9.97;100.00;100699.78;2079678;28;32125;-80
2022/11/08 03:39:12;;;;;;;10.43;2.50;;;;;;;9.96;100.00;100689.97;2087019;28;33578;-80
2022/11/08 03:40:13;;;;;;;11.43;2.67;;;;;;;9.94;100.00;100696.25;2087076;28;28842;-80
2022/11/08 03:41:15;;;;;;;8.27;2.25;;;;;;;9.99;100.00;100701.47;2086351;28;31590;-80
2022/11/08 03:42:17;;;;;;;12.05;2.63;;;;;;;9.98;100.00;100701.53;2087732;28;37113;-80
2022/11/08 03:43:18;;;;;;;10.18;2.65;;;;;;;10.06;100.00;100704.91;2087535;28;31956;-80
2022/11/08 03:44:20;;;;;;;8.25;2.53;;;;;;;10.06;100.00;100704.91;2087942;28;20048;-80
2022/11/08 03:45:22;;;;;;;15.82;3.00;;;;;;;10.06;100.00;100699.53;2087679;28;32352;-80
2022/11/08 03:46:23;;;;;;;10.85;2.38;;;;;;;10.08;100.00;100703.06;2087566;28;34996;-79
2022/11/08 03:47:25;;;;;;;11.38;2.78;;;;;;;10.05;100.00;100708.47;2086694;28;36879;-79
2022/11/08 03:48:27;;;;;;;9.15;2.33;;;;;;;9.99;100.00;100701.47;2087403;28;36686;-80
2022/11/08 03:49:28;;;;;;;8.20;2.00;;;;;;;9.97;100.00;100707.81;2087146;28;31679;-80
2022/11/08 03:50:30;;;;;;;10.68;2.90;;;;;;;9.98;100.00;100705.09;2086693;28;30123;-80
2022/11/08 03:51:32;;;;;;;9.20;2.45;;;;;;;9.94;100.00;100712.31;2086541;28;39703;-80
2022/11/08 03:52:46;;;;;;;10.93;2.38;;;;;;;9.98;100.00;100705.09;2087486;28;20045;-80
2022/11/08 03:53:47;;;;;;;8.93;2.35;;;;;;;9.93;100.00;100705.19;2086959;28;32471;-80
2022/11/08 03:54:49;;;;;;;9.82;3.17;;;;;;;9.93;100.00;100713.22;2087974;28;20052;-80
2022/11/08 03:55:51;;;;;;;9.35;2.45;;;;;;;9.96;100.00;100708.69;2086906;28;35890;-80
2022/11/08 03:56:53;;;;;;;12.52;2.60;;;;;;;9.99;100.00;100712.19;2087856;28;39326;-79
2022/11/08 03:57:55;;;;;;;10.68;2.53;;;;;;;9.97;100.00;100715.81;2087707;28;20119;-80
2022/11/08 03:58:57;;;;;;;7.07;2.22;;;;;;;10.01;100.00;100714.81;2088002;28;29009;-80
2022/11/08 03:59:58;;;;;;;9.95;2.63;;;;;;;10.01;100.00;100712.16;2085785;28;29029;-80
2022/11/08 04:01:05;;;;;;;10.38;2.90;;;;;;;9.98;100.00;100709.53;2086927;28;36177;-80
2022/11/08 04:02:07;;;;;;;7.72;2.47;;;;;;;9.98;100.00;100706.88;2087902;28;36742;-80
2022/11/08 04:03:09;;;;;;;9.48;2.95;;;;;;;9.97;100.00;100713.16;2086472;28;35908;-80
2022/11/08 04:04:11;;;;;;;10.07;2.85;;;;;;;9.95;100.00;100713.19;2078222;28;35408;-80
2022/11/08 04:05:14;;;;;;;8.85;2.30;;;;;;;9.94;100.00;100714.09;2087254;28;31307;-80
2022/11/08 04:06:16;;;;;;;10.88;2.78;;;;;;;9.96;100.00;100714.97;2087265;28;28009;-80
2022/11/08 04:07:17;;;;;;;7.63;2.58;;;;;;;9.97;100.00;100711.34;2086980;28;36724;-80
2022/11/08 04:08:19;;;;;;;9.90;2.78;;;;;;;9.98;100.00;100707.78;2086841;28;35459;-80
2022/11/08 04:09:21;;;;;;;13.25;2.95;;;;;;;10.06;100.00;100705.78;2078594;28;30375;-80
2022/11/08 04:10:23;;;;;;;5.35;2.10;;;;;;;10.07;100.00;100706.66;2070599;28;36815;-80
2022/11/08 04:15:29;;;;;;;9.27;2.05;;;;;;;10.13;100.00;100699.34;2087883;28;29243;-80
2022/11/08 04:16:31;;;;;;;11.25;2.33;;;;;;;10.16;100.00;100706.44;2087443;28;32732;-80
2022/11/08 04:21:34;;;;;;;;;;;;;;;10.22;100.00;100695.56;2084197;28;34681;-80
2022/11/08 04:22:35;;;;;;;8.65;2.47;;;;;;;10.22;100.00;100706.28;2081541;28;31385;-80
2022/11/08 04:23:37;;;;;;;11.60;2.22;;;;;;;10.21;100.00;100696.50;2087396;28;20045;-80
2022/11/08 04:24:39;;;;;;;10.32;2.53;;;;;;;10.20;100.00;100692.06;2087808;28;32946;-80
2022/11/08 04:25:41;;;;;;;8.73;2.33;;;;;;;10.21;100.00;100699.19;2094824;28;29737;-79
2022/11/08 04:26:46;;;;;;;9.52;1.95;;;;;;;10.20;100.00;100692.06;2086707;28;35897;-80
2022/11/08 04:27:47;;;;;;;9.70;2.10;;;;;;;10.19;100.00;100698.31;2086816;28;33068;-80
2022/11/08 04:28:49;;;;;;;7.63;1.98;;;;;;;10.18;100.00;100695.69;2088069;28;20045;-80
2022/11/08 04:29:51;;;;;;;8.55;2.67;;;;;;;10.17;100.00;100693.94;2086375;28;39696;-80
2022/11/08 04:30:59;;;;;;;7.38;2.10;;;;;;;10.17;100.00;100688.56;2086844;28;37301;-80
2022/11/08 04:32:00;;;;;;;12.32;2.20;;;;;;;10.16;100.00;100692.16;2086832;28;34768;-80
2022/11/08 04:33:06;;;;;;;7.55;2.05;;;;;;;10.11;100.00;100693.16;2086782;28;30761;-80
2022/11/08 04:34:08;;;;;;;5.90;2.28;;;;;;;10.10;100.00;100696.78;2086603;28;34925;-80
2022/11/08 04:35:10;;;;;;;9.25;2.35;;;;;;;10.09;100.00;100689.66;2086529;28;28544;-80
2022/11/08 04:36:15;;;;;;;8.90;2.03;;;;;;;10.06;100.00;100680.81;2087329;28;37369;-80
2022/11/08 04:37:17;;;;;;;9.57;2.03;;;;;;;10.05;100.00;100687.06;2095720;28;20033;-80
2022/11/08 04:38:20;;;;;;;11.35;2.17;;;;;;;10.04;100.00;100691.56;2094843;28;32022;-80
2022/11/08 04:39:22;;;;;;;9.57;2.20;;;;;;;10.03;100.00;100683.56;2087161;28;35493;-80
2022/11/08 04:40:23;;;;;;;8.02;2.67;;;;;;;10.04;100.00;100685.34;2087102;28;21464;-80
2022/11/08 04:41:26;;;;;;;8.50;2.47;;;;;;;9.98;100.00;100674.78;2086918;28;37573;-80
2022/11/08 04:42:27;;;;;;;7.05;2.40;;;;;;;9.97;100.00;100683.72;2095030;28;33800;-80
2022/11/08 04:43:31;;;;;;;8.38;2.42;;;;;;;9.94;100.00;100679.31;2095204;28;36635;-80
2022/11/08 04:44:32;;;;;;;12.25;2.50;;;;;;;9.89;100.00;100671.44;2094573;28;38034;-80
2022/11/08 04:45:34;;;;;;;9.95;2.55;;;;;;;9.89;100.00;100667.88;2087250;28;20864;-80
2022/11/08 04:46:36;;;;;;;10.85;2.40;;;;;;;9.88;100.00;100669.66;2086753;28;29978;-80
2022/11/08 04:47:37;;;;;;;13.00;2.65;;;;;;;9.89;100.00;100673.22;2087360;28;33375;-80
2022/11/08 04:48:43;;;;;;;9.10;2.22;;;;;;;9.86;100.00;100671.50;2087259;28;35062;-80
2022/11/08 04:49:45;;;;;;;8.88;2.28;;;;;;;9.86;100.00;100660.78;2087241;28;38060;-79
2022/11/08 04:50:47;;;;;;;9.30;2.47;;;;;;;9.85;100.00;100667.06;2086225;28;20902;-80
2022/11/08 04:51:51;;;;;;;12.45;2.30;;;;;;;9.83;100.00;100671.56;2086677;28;31705;-80
2022/11/08 04:52:54;;;;;;;9.82;2.90;;;;;;;9.80;100.00;100663.63;2087125;28;36090;-81
2022/11/08 04:53:58;;;;;;;12.23;2.88;;;;;;;9.79;100.00;100663.66;2086811;28;35038;-80
2022/11/08 04:55:00;;;;;;;9.85;2.30;;;;;;;9.82;100.00;100666.28;2078781;28;39049;-80
2022/11/08 04:56:09;;;;;;;9.50;2.05;;;;;;;9.80;100.00;100660.97;2087390;28;20037;-79
2022/11/08 04:57:12;;;;;;;12.70;2.55;;;;;;;9.81;100.00;100652.00;2094992;28;32765;-80
2022/11/08 04:58:14;;;;;;;7.15;2.42;;;;;;;9.83;100.00;100654.66;2094598;28;37152;-80
2022/11/08 04:59:16;;;;;;;7.07;1.92;;;;;;;9.79;100.00;100659.19;2087204;28;33236;-80
2022/11/08 05:00:18;;;;;;;7.60;2.20;;;;;;;9.77;100.00;100657.47;2088017;28;37704;-80
2022/11/08 05:01:23;;;;;;;9.30;2.28;;;;;;;9.73;100.00;100657.53;2089014;28;20471;-80
2022/11/08 05:02:25;;;;;;;9.82;1.98;;;;;;;9.77;100.00;100655.69;2089397;28;20104;-80
2022/11/08 05:03:28;;;;;;;10.27;2.35;;;;;;;9.71;100.00;100656.72;2087582;28;35788;-80
2022/11/08 05:04:30;;;;;;;10.35;2.40;;;;;;;9.65;100.00;100655.97;2088773;28;29462;-80
2022/11/08 05:05:32;;;;;;;8.80;2.40;;;;;;;9.65;100.00;100655.97;2090010;28;20037;-80
2022/11/08 05:06:33;;;;;;;9.82;2.75;;;;;;;9.63;100.00;100656.00;2088765;28;30261;-80
2022/11/08 05:07:35;;;;;;;9.13;2.40;;;;;;;9.63;100.00;100658.66;2095940;28;35912;-80
2022/11/08 05:08:37;;;;;;;13.10;2.58;;;;;;;9.64;100.00;100654.22;2096734;28;29389;-81
2022/11/08 05:09:41;;;;;;;9.52;2.20;;;;;;;9.67;100.00;100648.78;2085585;28;20046;-80